Wainwright, AK (99782)

11:33 PM AKST on November 27, 2014 (GMT -0900)
Wainwright | Change Station
CLOSE
Current Station
Airport
Location: Wainwright,
Elevation: 39 ft
Nearby Weather Stations

Elev 39 ft 70.64 °N, 159.99 °W | Updated 40 minutes ago

Clear
Clear
-8 °F
Feels Like -21 °F
N
6
Wind Variable Wind from ENE

Today
High -- | Low -- °F
--% Chance of Precip.
Yesterday
High -- | Low -- °F
Precip. -- in
12:53 PM 1:57 PM
Waxing Crescent, 38% visible
Pressure 30.09 in
Visibility 10.0 miles
Clouds Clear
Windchill -21 °F
Dew Point -14 °F
Humidity 75%
Rainfall 0.00 in
Snow Depth Not available.
UV 0 out of 12
Pollen Not available.
Air Quality Not available.
Flu Activity Not available.
METAR PAWI 280753Z AUTO 06005KT 10SM CLR M22/M26 A3008 RMK SLP188 T12221256 TSNO VIA AUTODIAL

More Conditions Fewer Conditions

Pressure 30.09 in
Visibility 10.0 miles
Clouds Clear
Windchill -21 °F
Dew Point -14 °F
Humidity 75%
Rainfall 0.00 in
Snow Depth Not available.
UV 0 out of 12
Pollen Not available.
Air Quality Not available.
Flu Activity Not available.
METAR PAWI 280753Z AUTO 06005KT 10SM CLR M22/M26 A3008 RMK SLP188 T12221256 TSNO VIA AUTODIAL

More Conditions Fewer Conditions

10-Day Weather Forecast

Almanac

Astronomy

Nov. 27, 2014 Rise Set
Actual Time
Civil Twilight
Nautical Twilight
Astronomical Twilight
Moon
Length of Visible Light
Length of Day
Tomorrow will be .
, % of the Moon is Illuminated

Today's Extremes

State Highs State Lows

Community

WunderPhotos

Upload Photos

1,774,191 photos uploaded!

WunderBlogs® & News

Nearby

Air Quality

  Air Quality AQ Index Pollutant
Not available.

Snow Depth

Station Depth Elevation

Earthquake Activity

City Distance Mag. Time & Date
Minimum magnitude displayed is 2.5.

Coastal Water Temperatures

Place Temperature

Nearby Weather Stations